sensor_id;sensor_type;location;lat;lon;timestamp;P1;durP1;ratioP1;P2;durP2;ratioP2
42196;SDS011;27866;48.146;17.098;2023-05-10T00:03:56;4.82;;;2.70;;
42196;SDS011;27866;48.146;17.098;2023-05-10T00:08:07;6.40;;;2.72;;
42196;SDS011;27866;48.146;17.098;2023-05-10T00:12:19;3.90;;;2.65;;
42196;SDS011;27866;48.146;17.098;2023-05-10T00:16:30;3.50;;;2.58;;
42196;SDS011;27866;48.146;17.098;2023-05-10T00:20:41;8.95;;;2.90;;
42196;SDS011;27866;48.146;17.098;2023-05-10T00:24:53;4.40;;;2.90;;
42196;SDS011;27866;48.146;17.098;2023-05-10T00:29:04;4.22;;;2.75;;
42196;SDS011;27866;48.146;17.098;2023-05-10T00:33:16;7.75;;;2.95;;
42196;SDS011;27866;48.146;17.098;2023-05-10T00:37:28;4.40;;;3.00;;
42196;SDS011;27866;48.146;17.098;2023-05-10T00:41:40;4.28;;;2.80;;
42196;SDS011;27866;48.146;17.098;2023-05-10T00:45:52;6.43;;;3.00;;
42196;SDS011;27866;48.146;17.098;2023-05-10T00:50:03;3.92;;;2.58;;
42196;SDS011;27866;48.146;17.098;2023-05-10T00:54:16;3.97;;;2.88;;
42196;SDS011;27866;48.146;17.098;2023-05-10T00:58:27;6.18;;;3.20;;
42196;SDS011;27866;48.146;17.098;2023-05-10T01:02:39;5.63;;;2.97;;
42196;SDS011;27866;48.146;17.098;2023-05-10T01:06:52;6.85;;;3.00;;
42196;SDS011;27866;48.146;17.098;2023-05-10T01:11:03;4.53;;;2.83;;
42196;SDS011;27866;48.146;17.098;2023-05-10T01:15:15;5.53;;;3.22;;
42196;SDS011;27866;48.146;17.098;2023-05-10T01:19:29;5.05;;;2.95;;
42196;SDS011;27866;48.146;17.098;2023-05-10T01:33:35;7.60;;;3.63;;
42196;SDS011;27866;48.146;17.098;2023-05-10T01:38:03;6.35;;;3.22;;
42196;SDS011;27866;48.146;17.098;2023-05-10T01:42:29;6.95;;;3.40;;
42196;SDS011;27866;48.146;17.098;2023-05-10T01:47:01;5.45;;;3.60;;
42196;SDS011;27866;48.146;17.098;2023-05-10T01:51:24;5.32;;;3.28;;
42196;SDS011;27866;48.146;17.098;2023-05-10T01:55:41;8.00;;;3.60;;
42196;SDS011;27866;48.146;17.098;2023-05-10T01:59:57;5.47;;;3.28;;
42196;SDS011;27866;48.146;17.098;2023-05-10T02:04:09;5.60;;;3.33;;
42196;SDS011;27866;48.146;17.098;2023-05-10T02:08:25;9.48;;;3.55;;
42196;SDS011;27866;48.146;17.098;2023-05-10T02:12:39;5.32;;;3.15;;
42196;SDS011;27866;48.146;17.098;2023-05-10T02:16:55;13.15;;;3.70;;
42196;SDS011;27866;48.146;17.098;2023-05-10T02:21:09;4.93;;;2.95;;
42196;SDS011;27866;48.146;17.098;2023-05-10T02:29:35;6.18;;;3.45;;
42196;SDS011;27866;48.146;17.098;2023-05-10T02:33:47;8.23;;;3.78;;
42196;SDS011;27866;48.146;17.098;2023-05-10T02:37:59;6.18;;;3.78;;
42196;SDS011;27866;48.146;17.098;2023-05-10T02:42:11;8.90;;;4.22;;
42196;SDS011;27866;48.146;17.098;2023-05-10T02:46:28;5.30;;;3.60;;
42196;SDS011;27866;48.146;17.098;2023-05-10T02:50:41;7.13;;;3.72;;
42196;SDS011;27866;48.146;17.098;2023-05-10T02:54:56;5.25;;;3.70;;
42196;SDS011;27866;48.146;17.098;2023-05-10T02:59:13;6.75;;;3.90;;
42196;SDS011;27866;48.146;17.098;2023-05-10T03:03:25;8.90;;;3.95;;
42196;SDS011;27866;48.146;17.098;2023-05-10T03:07:37;7.32;;;3.92;;
42196;SDS011;27866;48.146;17.098;2023-05-10T03:12:04;6.97;;;3.78;;
42196;SDS011;27866;48.146;17.098;2023-05-10T03:16:52;5.80;;;4.07;;
42196;SDS011;27866;48.146;17.098;2023-05-10T03:21:17;6.53;;;3.75;;
42196;SDS011;27866;48.146;17.098;2023-05-10T03:25:34;6.15;;;4.13;;
42196;SDS011;27866;48.146;17.098;2023-05-10T03:29:49;6.13;;;4.10;;
42196;SDS011;27866;48.146;17.098;2023-05-10T03:34:01;8.77;;;4.53;;
42196;SDS011;27866;48.146;17.098;2023-05-10T03:38:13;6.57;;;4.70;;
42196;SDS011;27866;48.146;17.098;2023-05-10T03:42:24;6.60;;;4.50;;
42196;SDS011;27866;48.146;17.098;2023-05-10T03:46:36;9.98;;;4.50;;
42196;SDS011;27866;48.146;17.098;2023-05-10T03:50:47;7.50;;;4.53;;
42196;SDS011;27866;48.146;17.098;2023-05-10T03:54:59;7.13;;;4.60;;
42196;SDS011;27866;48.146;17.098;2023-05-10T03:59:13;12.90;;;4.72;;
42196;SDS011;27866;48.146;17.098;2023-05-10T04:03:24;7.93;;;4.20;;
42196;SDS011;27866;48.146;17.098;2023-05-10T04:07:36;6.50;;;4.38;;
42196;SDS011;27866;48.146;17.098;2023-05-10T04:11:47;5.97;;;4.60;;
42196;SDS011;27866;48.146;17.098;2023-05-10T04:15:59;9.43;;;4.57;;
42196;SDS011;27866;48.146;17.098;2023-05-10T04:20:10;9.00;;;5.25;;
42196;SDS011;27866;48.146;17.098;2023-05-10T04:24:22;8.18;;;5.03;;
42196;SDS011;27866;48.146;17.098;2023-05-10T04:28:33;11.60;;;4.80;;
42196;SDS011;27866;48.146;17.098;2023-05-10T04:32:45;7.05;;;4.95;;
42196;SDS011;27866;48.146;17.098;2023-05-10T04:36:56;7.70;;;5.03;;
42196;SDS011;27866;48.146;17.098;2023-05-10T04:41:07;6.40;;;4.85;;
42196;SDS011;27866;48.146;17.098;2023-05-10T04:45:20;12.05;;;5.22;;
42196;SDS011;27866;48.146;17.098;2023-05-10T04:49:31;12.10;;;5.57;;
42196;SDS011;27866;48.146;17.098;2023-05-10T04:53:43;10.55;;;5.90;;
42196;SDS011;27866;48.146;17.098;2023-05-10T04:57:55;13.25;;;5.28;;
42196;SDS011;27866;48.146;17.098;2023-05-10T05:02:07;11.48;;;5.85;;
42196;SDS011;27866;48.146;17.098;2023-05-10T05:06:18;9.07;;;5.93;;
42196;SDS011;27866;48.146;17.098;2023-05-10T05:10:31;12.68;;;5.97;;
42196;SDS011;27866;48.146;17.098;2023-05-10T05:14:42;12.38;;;6.00;;
42196;SDS011;27866;48.146;17.098;2023-05-10T05:18:53;12.52;;;7.32;;
42196;SDS011;27866;48.146;17.098;2023-05-10T05:23:04;12.93;;;6.75;;
42196;SDS011;27866;48.146;17.098;2023-05-10T05:27:16;9.98;;;6.25;;
42196;SDS011;27866;48.146;17.098;2023-05-10T05:31:27;13.13;;;6.72;;
42196;SDS011;27866;48.146;17.098;2023-05-10T05:35:39;11.68;;;6.30;;
42196;SDS011;27866;48.146;17.098;2023-05-10T05:39:50;9.68;;;6.95;;
42196;SDS011;27866;48.146;17.098;2023-05-10T05:44:01;13.45;;;7.03;;
42196;SDS011;27866;48.146;17.098;2023-05-10T05:48:12;11.80;;;6.93;;
42196;SDS011;27866;48.146;17.098;2023-05-10T05:52:24;11.10;;;6.72;;
42196;SDS011;27866;48.146;17.098;2023-05-10T05:56:35;9.82;;;6.47;;
42196;SDS011;27866;48.146;17.098;2023-05-10T06:00:46;13.52;;;6.65;;
42196;SDS011;27866;48.146;17.098;2023-05-10T06:04:57;11.98;;;6.30;;
42196;SDS011;27866;48.146;17.098;2023-05-10T06:09:09;9.25;;;6.22;;
42196;SDS011;27866;48.146;17.098;2023-05-10T06:13:20;13.77;;;6.43;;
42196;SDS011;27866;48.146;17.098;2023-05-10T06:17:31;9.13;;;5.72;;
42196;SDS011;27866;48.146;17.098;2023-05-10T06:21:43;10.65;;;6.35;;
42196;SDS011;27866;48.146;17.098;2023-05-10T06:25:54;10.10;;;5.80;;
42196;SDS011;27866;48.146;17.098;2023-05-10T06:30:05;7.60;;;4.88;;
42196;SDS011;27866;48.146;17.098;2023-05-10T06:34:18;10.57;;;5.28;;
42196;SDS011;27866;48.146;17.098;2023-05-10T06:38:29;9.30;;;5.20;;
42196;SDS011;27866;48.146;17.098;2023-05-10T06:42:41;9.50;;;5.10;;
42196;SDS011;27866;48.146;17.098;2023-05-10T06:46:52;11.63;;;5.18;;
42196;SDS011;27866;48.146;17.098;2023-05-10T06:51:05;8.30;;;4.95;;
42196;SDS011;27866;48.146;17.098;2023-05-10T06:55:16;7.70;;;4.57;;
42196;SDS011;27866;48.146;17.098;2023-05-10T06:59:27;11.55;;;4.70;;
42196;SDS011;27866;48.146;17.098;2023-05-10T07:03:39;8.85;;;4.55;;
42196;SDS011;27866;48.146;17.098;2023-05-10T07:07:50;8.52;;;4.30;;
42196;SDS011;27866;48.146;17.098;2023-05-10T07:12:02;10.02;;;4.60;;
42196;SDS011;27866;48.146;17.098;2023-05-10T07:16:14;6.82;;;3.67;;
42196;SDS011;27866;48.146;17.098;2023-05-10T07:20:25;7.10;;;3.85;;
42196;SDS011;27866;48.146;17.098;2023-05-10T07:24:36;7.45;;;3.80;;
42196;SDS011;27866;48.146;17.098;2023-05-10T07:28:47;9.10;;;4.32;;
42196;SDS011;27866;48.146;17.098;2023-05-10T07:32:59;9.45;;;3.35;;
42196;SDS011;27866;48.146;17.098;2023-05-10T07:37:10;4.65;;;3.00;;
42196;SDS011;27866;48.146;17.098;2023-05-10T07:41:21;5.07;;;2.70;;
42196;SDS011;27866;48.146;17.098;2023-05-10T07:45:33;3.70;;;2.80;;
42196;SDS011;27866;48.146;17.098;2023-05-10T07:49:44;5.55;;;2.90;;
42196;SDS011;27866;48.146;17.098;2023-05-10T07:53:56;3.72;;;2.75;;
42196;SDS011;27866;48.146;17.098;2023-05-10T07:58:08;6.47;;;3.30;;
42196;SDS011;27866;48.146;17.098;2023-05-10T08:02:19;6.03;;;3.30;;
42196;SDS011;27866;48.146;17.098;2023-05-10T08:06:30;6.68;;;3.10;;
42196;SDS011;27866;48.146;17.098;2023-05-10T08:10:41;5.43;;;3.03;;
42196;SDS011;27866;48.146;17.098;2023-05-10T08:14:53;8.73;;;3.42;;
42196;SDS011;27866;48.146;17.098;2023-05-10T08:19:04;4.15;;;2.67;;
42196;SDS011;27866;48.146;17.098;2023-05-10T08:23:15;4.63;;;3.20;;
42196;SDS011;27866;48.146;17.098;2023-05-10T08:27:26;7.50;;;4.00;;
42196;SDS011;27866;48.146;17.098;2023-05-10T08:31:38;9.57;;;3.35;;
42196;SDS011;27866;48.146;17.098;2023-05-10T08:35:50;9.32;;;3.92;;
42196;SDS011;27866;48.146;17.098;2023-05-10T08:40:01;4.97;;;3.72;;
42196;SDS011;27866;48.146;17.098;2023-05-10T08:44:13;5.85;;;3.00;;
42196;SDS011;27866;48.146;17.098;2023-05-10T08:48:25;6.43;;;3.08;;
42196;SDS011;27866;48.146;17.098;2023-05-10T08:52:38;5.93;;;3.38;;
42196;SDS011;27866;48.146;17.098;2023-05-10T08:56:51;7.00;;;3.63;;
42196;SDS011;27866;48.146;17.098;2023-05-10T09:01:03;5.97;;;3.10;;
42196;SDS011;27866;48.146;17.098;2023-05-10T09:05:16;5.63;;;3.25;;
42196;SDS011;27866;48.146;17.098;2023-05-10T09:09:28;7.50;;;3.17;;
42196;SDS011;27866;48.146;17.098;2023-05-10T09:13:39;7.60;;;3.05;;
42196;SDS011;27866;48.146;17.098;2023-05-10T09:17:52;8.95;;;2.90;;
42196;SDS011;27866;48.146;17.098;2023-05-10T09:22:05;6.00;;;3.05;;
42196;SDS011;27866;48.146;17.098;2023-05-10T09:26:16;6.32;;;2.53;;
42196;SDS011;27866;48.146;17.098;2023-05-10T09:30:28;6.30;;;2.78;;
42196;SDS011;27866;48.146;17.098;2023-05-10T09:34:41;4.60;;;2.40;;
42196;SDS011;27866;48.146;17.098;2023-05-10T09:38:53;6.13;;;3.05;;
42196;SDS011;27866;48.146;17.098;2023-05-10T09:43:06;4.15;;;2.35;;
42196;SDS011;27866;48.146;17.098;2023-05-10T09:47:18;5.65;;;2.40;;
42196;SDS011;27866;48.146;17.098;2023-05-10T09:51:29;3.38;;;2.38;;
42196;SDS011;27866;48.146;17.098;2023-05-10T09:55:43;6.90;;;2.10;;
42196;SDS011;27866;48.146;17.098;2023-05-10T09:59:57;2.65;;;2.25;;
42196;SDS011;27866;48.146;17.098;2023-05-10T10:04:11;2.40;;;1.70;;
42196;SDS011;27866;48.146;17.098;2023-05-10T10:08:23;4.18;;;2.22;;
42196;SDS011;27866;48.146;17.098;2023-05-10T10:12:34;6.07;;;2.10;;
42196;SDS011;27866;48.146;17.098;2023-05-10T10:16:46;6.27;;;2.00;;
42196;SDS011;27866;48.146;17.098;2023-05-10T10:20:57;3.97;;;1.80;;
42196;SDS011;27866;48.146;17.098;2023-05-10T10:25:10;4.70;;;1.73;;
42196;SDS011;27866;48.146;17.098;2023-05-10T10:29:26;4.03;;;1.90;;
42196;SDS011;27866;48.146;17.098;2023-05-10T10:34:05;4.72;;;2.08;;
42196;SDS011;27866;48.146;17.098;2023-05-10T10:38:20;4.03;;;2.20;;
42196;SDS011;27866;48.146;17.098;2023-05-10T10:42:53;3.47;;;1.80;;
42196;SDS011;27866;48.146;17.098;2023-05-10T10:51:22;3.08;;;2.20;;
42196;SDS011;27866;48.146;17.098;2023-05-10T10:55:33;4.10;;;1.80;;
42196;SDS011;27866;48.146;17.098;2023-05-10T10:59:45;3.50;;;1.90;;
42196;SDS011;27866;48.146;17.098;2023-05-10T11:08:15;3.30;;;2.10;;
42196;SDS011;27866;48.146;17.098;2023-05-10T11:12:29;4.72;;;1.70;;
42196;SDS011;27866;48.146;17.098;2023-05-10T11:16:41;3.08;;;1.90;;
42196;SDS011;27866;48.146;17.098;2023-05-10T11:21:00;2.38;;;1.58;;
42196;SDS011;27866;48.146;17.098;2023-05-10T11:25:22;3.70;;;1.70;;
42196;SDS011;27866;48.146;17.098;2023-05-10T11:29:37;2.67;;;1.80;;
42196;SDS011;27866;48.146;17.098;2023-05-10T11:33:53;4.37;;;1.80;;
42196;SDS011;27866;48.146;17.098;2023-05-10T11:38:09;9.73;;;1.83;;
42196;SDS011;27866;48.146;17.098;2023-05-10T11:42:21;3.28;;;1.73;;
42196;SDS011;27866;48.146;17.098;2023-05-10T11:46:33;3.45;;;1.70;;
42196;SDS011;27866;48.146;17.098;2023-05-10T11:50:44;5.55;;;1.67;;
42196;SDS011;27866;48.146;17.098;2023-05-10T11:54:57;5.55;;;1.73;;
42196;SDS011;27866;48.146;17.098;2023-05-10T11:59:08;6.30;;;1.70;;
42196;SDS011;27866;48.146;17.098;2023-05-10T12:03:19;3.53;;;1.60;;
42196;SDS011;27866;48.146;17.098;2023-05-10T12:07:31;4.63;;;1.58;;
42196;SDS011;27866;48.146;17.098;2023-05-10T12:11:42;5.07;;;1.35;;
42196;SDS011;27866;48.146;17.098;2023-05-10T12:15:53;8.13;;;1.65;;
42196;SDS011;27866;48.146;17.098;2023-05-10T12:20:15;4.13;;;1.30;;
42196;SDS011;27866;48.146;17.098;2023-05-10T12:24:33;3.25;;;1.75;;
42196;SDS011;27866;48.146;17.098;2023-05-10T12:28:45;2.15;;;1.42;;
42196;SDS011;27866;48.146;17.098;2023-05-10T12:33:00;7.35;;;1.20;;
42196;SDS011;27866;48.146;17.098;2023-05-10T12:37:17;1.88;;;1.45;;
42196;SDS011;27866;48.146;17.098;2023-05-10T12:41:38;4.43;;;2.85;;
42196;SDS011;27866;48.146;17.098;2023-05-10T12:45:49;4.67;;;1.60;;
42196;SDS011;27866;48.146;17.098;2023-05-10T12:50:00;6.53;;;1.47;;
42196;SDS011;27866;48.146;17.098;2023-05-10T12:54:13;3.13;;;1.40;;
42196;SDS011;27866;48.146;17.098;2023-05-10T12:58:24;2.85;;;1.20;;
42196;SDS011;27866;48.146;17.098;2023-05-10T13:02:35;3.17;;;1.70;;
42196;SDS011;27866;48.146;17.098;2023-05-10T13:06:46;3.45;;;1.50;;
42196;SDS011;27866;48.146;17.098;2023-05-10T13:10:58;5.45;;;1.50;;
42196;SDS011;27866;48.146;17.098;2023-05-10T13:19:21;5.90;;;1.90;;
42196;SDS011;27866;48.146;17.098;2023-05-10T13:23:33;6.88;;;2.20;;
42196;SDS011;27866;48.146;17.098;2023-05-10T13:27:45;8.48;;;2.28;;
42196;SDS011;27866;48.146;17.098;2023-05-10T13:31:56;5.93;;;1.65;;
42196;SDS011;27866;48.146;17.098;2023-05-10T13:36:07;5.07;;;1.80;;
42196;SDS011;27866;48.146;17.098;2023-05-10T13:40:18;5.70;;;1.73;;
42196;SDS011;27866;48.146;17.098;2023-05-10T13:44:30;3.03;;;1.70;;
42196;SDS011;27866;48.146;17.098;2023-05-10T13:48:43;8.98;;;1.88;;
42196;SDS011;27866;48.146;17.098;2023-05-10T13:52:54;3.88;;;1.48;;
42196;SDS011;27866;48.146;17.098;2023-05-10T13:57:06;2.50;;;1.80;;
42196;SDS011;27866;48.146;17.098;2023-05-10T14:01:17;3.10;;;1.70;;
42196;SDS011;27866;48.146;17.098;2023-05-10T14:05:28;6.75;;;2.25;;
42196;SDS011;27866;48.146;17.098;2023-05-10T14:09:40;2.63;;;1.77;;
42196;SDS011;27866;48.146;17.098;2023-05-10T14:13:51;6.72;;;1.80;;
42196;SDS011;27866;48.146;17.098;2023-05-10T14:18:02;8.73;;;2.22;;
42196;SDS011;27866;48.146;17.098;2023-05-10T14:22:14;6.10;;;1.60;;
42196;SDS011;27866;48.146;17.098;2023-05-10T14:26:25;4.43;;;1.27;;
42196;SDS011;27866;48.146;17.098;2023-05-10T14:30:37;5.17;;;1.67;;
42196;SDS011;27866;48.146;17.098;2023-05-10T14:34:48;4.28;;;1.80;;
42196;SDS011;27866;48.146;17.098;2023-05-10T14:39:00;3.70;;;1.88;;
42196;SDS011;27866;48.146;17.098;2023-05-10T14:43:11;3.35;;;1.60;;
42196;SDS011;27866;48.146;17.098;2023-05-10T14:47:22;2.70;;;1.77;;
42196;SDS011;27866;48.146;17.098;2023-05-10T14:51:34;4.13;;;1.63;;
42196;SDS011;27866;48.146;17.098;2023-05-10T14:55:47;4.00;;;1.98;;
42196;SDS011;27866;48.146;17.098;2023-05-10T14:59:58;3.22;;;1.85;;
42196;SDS011;27866;48.146;17.098;2023-05-10T15:04:09;2.53;;;1.80;;
42196;SDS011;27866;48.146;17.098;2023-05-10T15:08:20;2.90;;;1.90;;
42196;SDS011;27866;48.146;17.098;2023-05-10T15:12:32;6.20;;;2.00;;
42196;SDS011;27866;48.146;17.098;2023-05-10T15:16:43;3.85;;;1.85;;
42196;SDS011;27866;48.146;17.098;2023-05-10T15:20:54;2.50;;;1.90;;
42196;SDS011;27866;48.146;17.098;2023-05-10T15:25:06;5.63;;;1.92;;
42196;SDS011;27866;48.146;17.098;2023-05-10T15:29:18;2.83;;;2.00;;
42196;SDS011;27866;48.146;17.098;2023-05-10T15:33:30;5.60;;;2.50;;
42196;SDS011;27866;48.146;17.098;2023-05-10T15:37:41;2.95;;;1.70;;
42196;SDS011;27866;48.146;17.098;2023-05-10T15:41:52;8.93;;;2.05;;
42196;SDS011;27866;48.146;17.098;2023-05-10T15:46:03;2.80;;;1.92;;
42196;SDS011;27866;48.146;17.098;2023-05-10T15:50:16;5.68;;;1.80;;
42196;SDS011;27866;48.146;17.098;2023-05-10T15:54:27;6.05;;;2.20;;
42196;SDS011;27866;48.146;17.098;2023-05-10T15:58:39;6.35;;;2.13;;
42196;SDS011;27866;48.146;17.098;2023-05-10T16:02:51;5.15;;;2.20;;
42196;SDS011;27866;48.146;17.098;2023-05-10T16:07:03;3.72;;;2.20;;
42196;SDS011;27866;48.146;17.098;2023-05-10T16:11:14;3.38;;;2.15;;
42196;SDS011;27866;48.146;17.098;2023-05-10T16:15:26;2.45;;;1.90;;
42196;SDS011;27866;48.146;17.098;2023-05-10T16:19:37;4.82;;;2.03;;
42196;SDS011;27866;48.146;17.098;2023-05-10T16:23:48;6.78;;;2.20;;
42196;SDS011;27866;48.146;17.098;2023-05-10T16:28:00;5.38;;;2.00;;
42196;SDS011;27866;48.146;17.098;2023-05-10T16:32:11;3.05;;;2.15;;
42196;SDS011;27866;48.146;17.098;2023-05-10T16:36:23;6.10;;;2.30;;
42196;SDS011;27866;48.146;17.098;2023-05-10T16:40:34;2.88;;;2.00;;
42196;SDS011;27866;48.146;17.098;2023-05-10T16:44:45;3.75;;;2.00;;
42196;SDS011;27866;48.146;17.098;2023-05-10T16:48:56;4.55;;;2.10;;
42196;SDS011;27866;48.146;17.098;2023-05-10T16:53:09;5.00;;;2.30;;
42196;SDS011;27866;48.146;17.098;2023-05-10T16:57:21;4.70;;;1.90;;
42196;SDS011;27866;48.146;17.098;2023-05-10T17:01:32;3.10;;;1.85;;
42196;SDS011;27866;48.146;17.098;2023-05-10T17:05:43;3.65;;;1.75;;
42196;SDS011;27866;48.146;17.098;2023-05-10T17:09:55;6.93;;;1.92;;
42196;SDS011;27866;48.146;17.098;2023-05-10T17:14:08;5.10;;;2.17;;
42196;SDS011;27866;48.146;17.098;2023-05-10T17:18:20;4.25;;;2.03;;
42196;SDS011;27866;48.146;17.098;2023-05-10T17:22:32;3.22;;;2.20;;
42196;SDS011;27866;48.146;17.098;2023-05-10T17:26:43;5.50;;;1.90;;
42196;SDS011;27866;48.146;17.098;2023-05-10T17:30:55;3.38;;;1.88;;
42196;SDS011;27866;48.146;17.098;2023-05-10T17:35:07;6.60;;;2.40;;
42196;SDS011;27866;48.146;17.098;2023-05-10T17:39:19;7.60;;;1.98;;
42196;SDS011;27866;48.146;17.098;2023-05-10T17:43:30;5.38;;;2.08;;
42196;SDS011;27866;48.146;17.098;2023-05-10T17:47:42;3.50;;;1.92;;
42196;SDS011;27866;48.146;17.098;2023-05-10T17:51:53;3.67;;;2.22;;
42196;SDS011;27866;48.146;17.098;2023-05-10T17:56:04;5.18;;;2.13;;
42196;SDS011;27866;48.146;17.098;2023-05-10T18:00:16;5.03;;;2.10;;
42196;SDS011;27866;48.146;17.098;2023-05-10T18:04:28;6.78;;;2.33;;
42196;SDS011;27866;48.146;17.098;2023-05-10T18:08:39;3.58;;;2.47;;
42196;SDS011;27866;48.146;17.098;2023-05-10T18:12:51;14.80;;;3.22;;
42196;SDS011;27866;48.146;17.098;2023-05-10T18:17:02;3.53;;;2.15;;
42196;SDS011;27866;48.146;17.098;2023-05-10T18:21:13;5.20;;;2.00;;
42196;SDS011;27866;48.146;17.098;2023-05-10T18:25:25;5.70;;;2.58;;
42196;SDS011;27866;48.146;17.098;2023-05-10T18:29:36;4.70;;;2.30;;
42196;SDS011;27866;48.146;17.098;2023-05-10T18:33:48;6.47;;;2.53;;
42196;SDS011;27866;48.146;17.098;2023-05-10T18:38:00;5.97;;;2.67;;
42196;SDS011;27866;48.146;17.098;2023-05-10T18:42:11;5.70;;;2.38;;
42196;SDS011;27866;48.146;17.098;2023-05-10T18:46:22;5.65;;;2.53;;
42196;SDS011;27866;48.146;17.098;2023-05-10T18:50:34;5.55;;;2.45;;
42196;SDS011;27866;48.146;17.098;2023-05-10T18:54:45;7.80;;;3.15;;
42196;SDS011;27866;48.146;17.098;2023-05-10T18:58:56;6.85;;;2.53;;
42196;SDS011;27866;48.146;17.098;2023-05-10T19:03:07;5.65;;;2.38;;
42196;SDS011;27866;48.146;17.098;2023-05-10T19:07:19;5.80;;;2.70;;
42196;SDS011;27866;48.146;17.098;2023-05-10T19:11:30;4.82;;;2.80;;
42196;SDS011;27866;48.146;17.098;2023-05-10T19:15:43;7.33;;;3.00;;
42196;SDS011;27866;48.146;17.098;2023-05-10T19:19:55;6.32;;;2.80;;
42196;SDS011;27866;48.146;17.098;2023-05-10T19:24:06;4.85;;;2.78;;
42196;SDS011;27866;48.146;17.098;2023-05-10T19:28:17;4.32;;;3.10;;
42196;SDS011;27866;48.146;17.098;2023-05-10T19:32:29;4.45;;;2.88;;
42196;SDS011;27866;48.146;17.098;2023-05-10T19:36:40;9.98;;;2.85;;
42196;SDS011;27866;48.146;17.098;2023-05-10T19:40:53;8.70;;;2.92;;
42196;SDS011;27866;48.146;17.098;2023-05-10T19:45:08;4.10;;;2.40;;
42196;SDS011;27866;48.146;17.098;2023-05-10T19:49:21;4.93;;;2.40;;
42196;SDS011;27866;48.146;17.098;2023-05-10T19:53:33;6.32;;;2.63;;
42196;SDS011;27866;48.146;17.098;2023-05-10T19:57:45;7.45;;;2.50;;
42196;SDS011;27866;48.146;17.098;2023-05-10T20:01:56;7.32;;;2.72;;
42196;SDS011;27866;48.146;17.098;2023-05-10T20:06:07;3.85;;;2.22;;
42196;SDS011;27866;48.146;17.098;2023-05-10T20:10:19;5.65;;;2.80;;
42196;SDS011;27866;48.146;17.098;2023-05-10T20:14:31;3.83;;;2.30;;
42196;SDS011;27866;48.146;17.098;2023-05-10T20:18:43;3.83;;;2.10;;
42196;SDS011;27866;48.146;17.098;2023-05-10T20:22:55;6.70;;;2.40;;
42196;SDS011;27866;48.146;17.098;2023-05-10T20:27:06;4.63;;;2.30;;
42196;SDS011;27866;48.146;17.098;2023-05-10T20:31:17;6.47;;;2.30;;
42196;SDS011;27866;48.146;17.098;2023-05-10T20:35:28;8.65;;;2.38;;
42196;SDS011;27866;48.146;17.098;2023-05-10T20:39:41;6.30;;;2.20;;
42196;SDS011;27866;48.146;17.098;2023-05-10T20:43:53;6.30;;;2.45;;
42196;SDS011;27866;48.146;17.098;2023-05-10T20:48:04;4.40;;;2.65;;
42196;SDS011;27866;48.146;17.098;2023-05-10T20:52:15;6.53;;;2.85;;
42196;SDS011;27866;48.146;17.098;2023-05-10T20:56:27;8.45;;;2.80;;
42196;SDS011;27866;48.146;17.098;2023-05-10T21:00:38;4.88;;;2.88;;
42196;SDS011;27866;48.146;17.098;2023-05-10T21:04:49;5.05;;;2.72;;
42196;SDS011;27866;48.146;17.098;2023-05-10T21:09:01;4.93;;;2.60;;
42196;SDS011;27866;48.146;17.098;2023-05-10T21:13:12;5.57;;;2.78;;
42196;SDS011;27866;48.146;17.098;2023-05-10T21:17:24;8.85;;;3.10;;
42196;SDS011;27866;48.146;17.098;2023-05-10T21:21:35;6.53;;;2.40;;
42196;SDS011;27866;48.146;17.098;2023-05-10T21:25:46;5.28;;;2.65;;
42196;SDS011;27866;48.146;17.098;2023-05-10T21:29:57;6.90;;;2.85;;
42196;SDS011;27866;48.146;17.098;2023-05-10T21:34:09;6.00;;;2.80;;
42196;SDS011;27866;48.146;17.098;2023-05-10T21:38:20;5.40;;;2.67;;
42196;SDS011;27866;48.146;17.098;2023-05-10T21:42:31;10.27;;;2.90;;
42196;SDS011;27866;48.146;17.098;2023-05-10T21:46:42;10.73;;;3.05;;
42196;SDS011;27866;48.146;17.098;2023-05-10T21:50:54;5.90;;;2.80;;
42196;SDS011;27866;48.146;17.098;2023-05-10T21:55:06;5.70;;;2.78;;
42196;SDS011;27866;48.146;17.098;2023-05-10T21:59:18;4.88;;;2.97;;
42196;SDS011;27866;48.146;17.098;2023-05-10T22:03:30;4.13;;;2.60;;
42196;SDS011;27866;48.146;17.098;2023-05-10T22:07:41;7.85;;;2.97;;
42196;SDS011;27866;48.146;17.098;2023-05-10T22:11:53;7.90;;;3.17;;
42196;SDS011;27866;48.146;17.098;2023-05-10T22:16:04;6.40;;;2.83;;
42196;SDS011;27866;48.146;17.098;2023-05-10T22:20:16;4.95;;;3.22;;
42196;SDS011;27866;48.146;17.098;2023-05-10T22:24:27;6.57;;;3.15;;
42196;SDS011;27866;48.146;17.098;2023-05-10T22:28:39;5.63;;;3.15;;
42196;SDS011;27866;48.146;17.098;2023-05-10T22:32:51;6.68;;;2.92;;
42196;SDS011;27866;48.146;17.098;2023-05-10T22:37:02;4.57;;;2.78;;
42196;SDS011;27866;48.146;17.098;2023-05-10T22:41:13;3.75;;;2.38;;
42196;SDS011;27866;48.146;17.098;2023-05-10T22:45:25;6.38;;;2.90;;
42196;SDS011;27866;48.146;17.098;2023-05-10T22:49:36;4.88;;;3.40;;
42196;SDS011;27866;48.146;17.098;2023-05-10T22:53:48;6.63;;;3.28;;
42196;SDS011;27866;48.146;17.098;2023-05-10T22:57:59;5.78;;;3.20;;
42196;SDS011;27866;48.146;17.098;2023-05-10T23:02:10;5.57;;;2.90;;
42196;SDS011;27866;48.146;17.098;2023-05-10T23:06:23;4.13;;;3.00;;
42196;SDS011;27866;48.146;17.098;2023-05-10T23:10:36;3.33;;;2.55;;
42196;SDS011;27866;48.146;17.098;2023-05-10T23:14:48;5.80;;;3.13;;
42196;SDS011;27866;48.146;17.098;2023-05-10T23:18:59;3.45;;;2.70;;
42196;SDS011;27866;48.146;17.098;2023-05-10T23:23:11;7.95;;;3.13;;
42196;SDS011;27866;48.146;17.098;2023-05-10T23:27:22;4.43;;;3.10;;
42196;SDS011;27866;48.146;17.098;2023-05-10T23:31:37;7.15;;;3.47;;
42196;SDS011;27866;48.146;17.098;2023-05-10T23:35:54;6.30;;;3.08;;
42196;SDS011;27866;48.146;17.098;2023-05-10T23:40:05;4.43;;;3.40;;
42196;SDS011;27866;48.146;17.098;2023-05-10T23:44:17;4.07;;;2.92;;
42196;SDS011;27866;48.146;17.098;2023-05-10T23:48:28;5.00;;;3.10;;
42196;SDS011;27866;48.146;17.098;2023-05-10T23:52:40;5.25;;;3.25;;
42196;SDS011;27866;48.146;17.098;2023-05-10T23:56:51;5.53;;;3.63;;
